sensor_id;sensor_type;location;lat;lon;timestamp;P1;durP1;ratioP1;P2;durP2;ratioP2
59008;SDS011;44794;42.652;23.318;2022-12-18T00:01:49;11.68;;;7.35;;
59008;SDS011;44794;42.652;23.318;2022-12-18T00:04:24;13.52;;;8.48;;
59008;SDS011;44794;42.652;23.318;2022-12-18T00:06:51;12.18;;;8.60;;
59008;SDS011;44794;42.652;23.318;2022-12-18T00:09:17;13.15;;;8.38;;
59008;SDS011;44794;42.652;23.318;2022-12-18T00:11:43;13.73;;;8.55;;
59008;SDS011;44794;42.652;23.318;2022-12-18T00:14:09;13.52;;;8.43;;
59008;SDS011;44794;42.652;23.318;2022-12-18T00:16:36;14.23;;;9.07;;
59008;SDS011;44794;42.652;23.318;2022-12-18T00:19:02;13.52;;;9.30;;
59008;SDS011;44794;42.652;23.318;2022-12-18T00:21:29;13.02;;;8.90;;
59008;SDS011;44794;42.652;23.318;2022-12-18T00:23:55;15.55;;;9.85;;
59008;SDS011;44794;42.652;23.318;2022-12-18T00:26:25;14.82;;;9.85;;
59008;SDS011;44794;42.652;23.318;2022-12-18T00:28:52;15.05;;;9.60;;
59008;SDS011;44794;42.652;23.318;2022-12-18T00:31:20;14.20;;;9.23;;
59008;SDS011;44794;42.652;23.318;2022-12-18T00:33:47;14.55;;;8.82;;
59008;SDS011;44794;42.652;23.318;2022-12-18T00:36:14;15.00;;;8.98;;
59008;SDS011;44794;42.652;23.318;2022-12-18T00:38:44;13.27;;;8.38;;
59008;SDS011;44794;42.652;23.318;2022-12-18T00:41:10;14.57;;;9.98;;
59008;SDS011;44794;42.652;23.318;2022-12-18T00:43:36;14.88;;;9.07;;
59008;SDS011;44794;42.652;23.318;2022-12-18T00:46:03;16.13;;;10.50;;
59008;SDS011;44794;42.652;23.318;2022-12-18T00:48:29;16.02;;;10.88;;
59008;SDS011;44794;42.652;23.318;2022-12-18T00:50:54;14.85;;;10.32;;
59008;SDS011;44794;42.652;23.318;2022-12-18T00:53:20;15.27;;;9.77;;
59008;SDS011;44794;42.652;23.318;2022-12-18T00:55:46;14.45;;;10.10;;
59008;SDS011;44794;42.652;23.318;2022-12-18T00:58:12;15.88;;;9.85;;
59008;SDS011;44794;42.652;23.318;2022-12-18T01:00:39;16.17;;;10.02;;
59008;SDS011;44794;42.652;23.318;2022-12-18T01:03:05;16.52;;;10.80;;
59008;SDS011;44794;42.652;23.318;2022-12-18T01:05:31;15.50;;;10.48;;
59008;SDS011;44794;42.652;23.318;2022-12-18T01:07:57;14.98;;;9.68;;
59008;SDS011;44794;42.652;23.318;2022-12-18T01:10:23;18.75;;;10.30;;
59008;SDS011;44794;42.652;23.318;2022-12-18T01:12:49;15.95;;;9.75;;
59008;SDS011;44794;42.652;23.318;2022-12-18T01:15:15;18.17;;;11.38;;
59008;SDS011;44794;42.652;23.318;2022-12-18T01:17:41;23.15;;;10.20;;
59008;SDS011;44794;42.652;23.318;2022-12-18T01:20:08;17.65;;;11.32;;
59008;SDS011;44794;42.652;23.318;2022-12-18T01:22:35;17.90;;;10.45;;
59008;SDS011;44794;42.652;23.318;2022-12-18T01:25:01;16.40;;;10.18;;
59008;SDS011;44794;42.652;23.318;2022-12-18T01:27:26;20.60;;;12.18;;
59008;SDS011;44794;42.652;23.318;2022-12-18T01:29:52;17.00;;;10.48;;
59008;SDS011;44794;42.652;23.318;2022-12-18T01:32:17;17.45;;;9.80;;
59008;SDS011;44794;42.652;23.318;2022-12-18T01:34:43;17.63;;;10.80;;
59008;SDS011;44794;42.652;23.318;2022-12-18T01:37:08;18.25;;;10.80;;
59008;SDS011;44794;42.652;23.318;2022-12-18T01:39:34;20.48;;;11.95;;
59008;SDS011;44794;42.652;23.318;2022-12-18T01:42:00;19.30;;;12.27;;
59008;SDS011;44794;42.652;23.318;2022-12-18T01:49:54;20.50;;;12.35;;
59008;SDS011;44794;42.652;23.318;2022-12-18T01:52:21;21.00;;;12.38;;
59008;SDS011;44794;42.652;23.318;2022-12-18T01:54:49;17.98;;;10.70;;
59008;SDS011;44794;42.652;23.318;2022-12-18T01:57:16;20.27;;;12.48;;
59008;SDS011;44794;42.652;23.318;2022-12-18T01:59:42;18.33;;;10.85;;
59008;SDS011;44794;42.652;23.318;2022-12-18T02:02:10;18.98;;;12.00;;
59008;SDS011;44794;42.652;23.318;2022-12-18T02:04:36;22.42;;;12.70;;
59008;SDS011;44794;42.652;23.318;2022-12-18T02:07:14;23.45;;;12.88;;
59008;SDS011;44794;42.652;23.318;2022-12-18T02:09:48;21.20;;;12.85;;
59008;SDS011;44794;42.652;23.318;2022-12-18T02:14:58;20.50;;;12.63;;
59008;SDS011;44794;42.652;23.318;2022-12-18T02:17:36;20.08;;;12.57;;
59008;SDS011;44794;42.652;23.318;2022-12-18T02:23:12;19.88;;;12.02;;
59008;SDS011;44794;42.652;23.318;2022-12-18T02:28:34;19.70;;;11.30;;
59008;SDS011;44794;42.652;23.318;2022-12-18T02:31:05;20.63;;;11.52;;
59008;SDS011;44794;42.652;23.318;2022-12-18T02:33:36;19.60;;;11.05;;
59008;SDS011;44794;42.652;23.318;2022-12-18T02:36:03;18.90;;;11.48;;
59008;SDS011;44794;42.652;23.318;2022-12-18T02:38:30;16.92;;;10.77;;
59008;SDS011;44794;42.652;23.318;2022-12-18T02:40:57;19.42;;;11.98;;
59008;SDS011;44794;42.652;23.318;2022-12-18T02:43:24;22.00;;;11.85;;
59008;SDS011;44794;42.652;23.318;2022-12-18T02:45:53;23.58;;;12.10;;
59008;SDS011;44794;42.652;23.318;2022-12-18T02:48:22;19.80;;;11.13;;
59008;SDS011;44794;42.652;23.318;2022-12-18T02:50:57;19.55;;;11.10;;
59008;SDS011;44794;42.652;23.318;2022-12-18T02:53:37;18.05;;;11.43;;
59008;SDS011;44794;42.652;23.318;2022-12-18T03:01:41;18.42;;;11.70;;
59008;SDS011;44794;42.652;23.318;2022-12-18T03:05:02;17.40;;;11.10;;
59008;SDS011;44794;42.652;23.318;2022-12-18T03:07:32;17.65;;;10.73;;
59008;SDS011;44794;42.652;23.318;2022-12-18T03:10:02;16.98;;;11.18;;
59008;SDS011;44794;42.652;23.318;2022-12-18T03:12:32;18.27;;;10.95;;
59008;SDS011;44794;42.652;23.318;2022-12-18T03:17:33;19.40;;;11.23;;
59008;SDS011;44794;42.652;23.318;2022-12-18T03:20:04;16.77;;;10.73;;
59008;SDS011;44794;42.652;23.318;2022-12-18T03:22:34;20.50;;;10.90;;
59008;SDS011;44794;42.652;23.318;2022-12-18T03:25:03;19.75;;;11.10;;
59008;SDS011;44794;42.652;23.318;2022-12-18T03:27:32;18.83;;;10.73;;
59008;SDS011;44794;42.652;23.318;2022-12-18T03:30:05;17.92;;;11.75;;
59008;SDS011;44794;42.652;23.318;2022-12-18T03:32:37;17.45;;;10.27;;
59008;SDS011;44794;42.652;23.318;2022-12-18T03:35:07;15.02;;;9.85;;
59008;SDS011;44794;42.652;23.318;2022-12-18T03:37:36;13.85;;;8.52;;
59008;SDS011;44794;42.652;23.318;2022-12-18T03:40:03;15.98;;;9.68;;
59008;SDS011;44794;42.652;23.318;2022-12-18T03:42:39;16.52;;;9.20;;
59008;SDS011;44794;42.652;23.318;2022-12-18T03:45:22;16.30;;;9.40;;
59008;SDS011;44794;42.652;23.318;2022-12-18T03:51:05;14.85;;;9.30;;
59008;SDS011;44794;42.652;23.318;2022-12-18T03:53:47;14.82;;;8.50;;
59008;SDS011;44794;42.652;23.318;2022-12-18T03:56:18;13.23;;;8.23;;
59008;SDS011;44794;42.652;23.318;2022-12-18T03:58:48;15.98;;;8.63;;
59008;SDS011;44794;42.652;23.318;2022-12-18T04:01:16;14.25;;;8.55;;
59008;SDS011;44794;42.652;23.318;2022-12-18T04:03:43;15.63;;;9.25;;
59008;SDS011;44794;42.652;23.318;2022-12-18T04:06:11;14.05;;;8.60;;
59008;SDS011;44794;42.652;23.318;2022-12-18T04:08:38;14.18;;;8.27;;
59008;SDS011;44794;42.652;23.318;2022-12-18T04:11:05;11.95;;;6.45;;
59008;SDS011;44794;42.652;23.318;2022-12-18T04:13:37;11.70;;;7.85;;
59008;SDS011;44794;42.652;23.318;2022-12-18T04:16:03;13.60;;;7.50;;
59008;SDS011;44794;42.652;23.318;2022-12-18T04:18:29;12.82;;;7.97;;
59008;SDS011;44794;42.652;23.318;2022-12-18T04:20:55;14.77;;;7.95;;
59008;SDS011;44794;42.652;23.318;2022-12-18T04:23:20;14.55;;;8.45;;
59008;SDS011;44794;42.652;23.318;2022-12-18T04:25:46;11.50;;;7.20;;
59008;SDS011;44794;42.652;23.318;2022-12-18T04:28:12;12.98;;;8.10;;
59008;SDS011;44794;42.652;23.318;2022-12-18T04:30:38;12.65;;;8.05;;
59008;SDS011;44794;42.652;23.318;2022-12-18T04:33:03;15.13;;;9.35;;
59008;SDS011;44794;42.652;23.318;2022-12-18T04:35:29;15.63;;;8.55;;
59008;SDS011;44794;42.652;23.318;2022-12-18T04:37:55;16.15;;;9.80;;
59008;SDS011;44794;42.652;23.318;2022-12-18T04:40:20;14.52;;;9.27;;
59008;SDS011;44794;42.652;23.318;2022-12-18T04:42:46;17.58;;;9.18;;
59008;SDS011;44794;42.652;23.318;2022-12-18T04:45:11;20.15;;;9.48;;
59008;SDS011;44794;42.652;23.318;2022-12-18T04:47:37;17.23;;;10.38;;
59008;SDS011;44794;42.652;23.318;2022-12-18T04:50:02;15.52;;;8.57;;
59008;SDS011;44794;42.652;23.318;2022-12-18T04:52:31;17.63;;;10.45;;
59008;SDS011;44794;42.652;23.318;2022-12-18T04:54:56;18.73;;;10.30;;
59008;SDS011;44794;42.652;23.318;2022-12-18T04:57:22;14.13;;;8.25;;
59008;SDS011;44794;42.652;23.318;2022-12-18T04:59:47;15.82;;;9.00;;
59008;SDS011;44794;42.652;23.318;2022-12-18T05:02:13;16.48;;;7.97;;
59008;SDS011;44794;42.652;23.318;2022-12-18T05:04:38;17.30;;;10.05;;
59008;SDS011;44794;42.652;23.318;2022-12-18T05:07:04;16.50;;;8.73;;
59008;SDS011;44794;42.652;23.318;2022-12-18T05:09:29;19.60;;;10.93;;
59008;SDS011;44794;42.652;23.318;2022-12-18T05:11:55;17.05;;;10.18;;
59008;SDS011;44794;42.652;23.318;2022-12-18T05:14:20;17.35;;;9.35;;
59008;SDS011;44794;42.652;23.318;2022-12-18T05:16:45;18.10;;;9.88;;
59008;SDS011;44794;42.652;23.318;2022-12-18T05:19:11;18.50;;;10.15;;
59008;SDS011;44794;42.652;23.318;2022-12-18T05:21:36;20.95;;;10.77;;
59008;SDS011;44794;42.652;23.318;2022-12-18T05:24:02;19.67;;;11.48;;
59008;SDS011;44794;42.652;23.318;2022-12-18T05:26:27;22.63;;;11.90;;
59008;SDS011;44794;42.652;23.318;2022-12-18T05:28:56;22.15;;;11.60;;
59008;SDS011;44794;42.652;23.318;2022-12-18T05:31:21;21.42;;;10.68;;
59008;SDS011;44794;42.652;23.318;2022-12-18T05:33:50;21.27;;;11.90;;
59008;SDS011;44794;42.652;23.318;2022-12-18T05:36:16;21.65;;;12.18;;
59008;SDS011;44794;42.652;23.318;2022-12-18T05:38:41;20.90;;;10.95;;
59008;SDS011;44794;42.652;23.318;2022-12-18T05:41:07;22.13;;;14.52;;
59008;SDS011;44794;42.652;23.318;2022-12-18T05:43:34;22.60;;;12.85;;
59008;SDS011;44794;42.652;23.318;2022-12-18T05:46:07;20.45;;;11.48;;
59008;SDS011;44794;42.652;23.318;2022-12-18T05:48:36;21.38;;;10.77;;
59008;SDS011;44794;42.652;23.318;2022-12-18T05:51:11;20.60;;;11.27;;
59008;SDS011;44794;42.652;23.318;2022-12-18T05:53:40;19.50;;;10.70;;
59008;SDS011;44794;42.652;23.318;2022-12-18T05:56:07;22.15;;;11.38;;
59008;SDS011;44794;42.652;23.318;2022-12-18T05:58:35;24.33;;;12.48;;
59008;SDS011;44794;42.652;23.318;2022-12-18T06:01:08;24.25;;;12.23;;
59008;SDS011;44794;42.652;23.318;2022-12-18T06:03:44;22.95;;;12.27;;
59008;SDS011;44794;42.652;23.318;2022-12-18T06:06:14;24.75;;;13.23;;
59008;SDS011;44794;42.652;23.318;2022-12-18T06:12:01;26.90;;;14.45;;
59008;SDS011;44794;42.652;23.318;2022-12-18T06:14:35;28.30;;;13.82;;
59008;SDS011;44794;42.652;23.318;2022-12-18T06:17:06;25.88;;;14.85;;
59008;SDS011;44794;42.652;23.318;2022-12-18T06:22:43;23.92;;;13.73;;
59008;SDS011;44794;42.652;23.318;2022-12-18T06:25:18;24.38;;;12.40;;
59008;SDS011;44794;42.652;23.318;2022-12-18T06:27:57;21.90;;;12.43;;
59008;SDS011;44794;42.652;23.318;2022-12-18T06:30:41;24.52;;;13.10;;
59008;SDS011;44794;42.652;23.318;2022-12-18T06:33:14;25.52;;;14.27;;
59008;SDS011;44794;42.652;23.318;2022-12-18T06:35:48;26.35;;;14.65;;
59008;SDS011;44794;42.652;23.318;2022-12-18T06:38:51;25.90;;;13.10;;
59008;SDS011;44794;42.652;23.318;2022-12-18T06:41:18;21.02;;;12.48;;
59008;SDS011;44794;42.652;23.318;2022-12-18T06:43:45;24.73;;;13.80;;
59008;SDS011;44794;42.652;23.318;2022-12-18T06:46:10;24.85;;;12.88;;
59008;SDS011;44794;42.652;23.318;2022-12-18T06:48:37;26.30;;;13.48;;
59008;SDS011;44794;42.652;23.318;2022-12-18T06:51:03;22.55;;;13.32;;
59008;SDS011;44794;42.652;23.318;2022-12-18T06:53:29;24.77;;;14.07;;
59008;SDS011;44794;42.652;23.318;2022-12-18T06:56:01;24.13;;;12.52;;
59008;SDS011;44794;42.652;23.318;2022-12-18T06:58:28;25.58;;;13.75;;
59008;SDS011;44794;42.652;23.318;2022-12-18T07:00:53;26.30;;;14.40;;
59008;SDS011;44794;42.652;23.318;2022-12-18T07:03:23;26.73;;;13.70;;
59008;SDS011;44794;42.652;23.318;2022-12-18T07:05:49;24.63;;;13.55;;
59008;SDS011;44794;42.652;23.318;2022-12-18T07:08:14;25.17;;;14.38;;
59008;SDS011;44794;42.652;23.318;2022-12-18T07:10:40;25.67;;;13.15;;
59008;SDS011;44794;42.652;23.318;2022-12-18T07:13:07;20.92;;;11.45;;
59008;SDS011;44794;42.652;23.318;2022-12-18T07:15:35;23.83;;;13.10;;
59008;SDS011;44794;42.652;23.318;2022-12-18T07:18:04;21.50;;;11.68;;
59008;SDS011;44794;42.652;23.318;2022-12-18T07:20:29;24.23;;;13.15;;
59008;SDS011;44794;42.652;23.318;2022-12-18T07:22:54;19.42;;;10.07;;
59008;SDS011;44794;42.652;23.318;2022-12-18T07:25:20;26.17;;;13.02;;
59008;SDS011;44794;42.652;23.318;2022-12-18T07:27:46;26.75;;;14.15;;
59008;SDS011;44794;42.652;23.318;2022-12-18T07:30:11;25.25;;;13.70;;
59008;SDS011;44794;42.652;23.318;2022-12-18T07:32:37;23.65;;;12.85;;
59008;SDS011;44794;42.652;23.318;2022-12-18T07:35:02;26.27;;;15.43;;
59008;SDS011;44794;42.652;23.318;2022-12-18T07:37:28;27.00;;;13.48;;
59008;SDS011;44794;42.652;23.318;2022-12-18T07:39:53;28.58;;;14.38;;
59008;SDS011;44794;42.652;23.318;2022-12-18T07:42:19;28.55;;;15.48;;
59008;SDS011;44794;42.652;23.318;2022-12-18T07:44:57;27.08;;;15.73;;
59008;SDS011;44794;42.652;23.318;2022-12-18T07:47:23;22.23;;;12.95;;
59008;SDS011;44794;42.652;23.318;2022-12-18T07:49:49;24.48;;;14.35;;
59008;SDS011;44794;42.652;23.318;2022-12-18T07:52:14;27.85;;;14.10;;
59008;SDS011;44794;42.652;23.318;2022-12-18T07:54:40;25.98;;;13.70;;
59008;SDS011;44794;42.652;23.318;2022-12-18T07:57:06;27.80;;;15.50;;
59008;SDS011;44794;42.652;23.318;2022-12-18T07:59:32;26.65;;;14.48;;
59008;SDS011;44794;42.652;23.318;2022-12-18T08:01:57;24.50;;;12.93;;
59008;SDS011;44794;42.652;23.318;2022-12-18T08:04:23;27.92;;;14.40;;
59008;SDS011;44794;42.652;23.318;2022-12-18T08:06:49;29.27;;;16.40;;
59008;SDS011;44794;42.652;23.318;2022-12-18T08:09:14;32.58;;;16.17;;
59008;SDS011;44794;42.652;23.318;2022-12-18T08:11:40;31.30;;;13.95;;
59008;SDS011;44794;42.652;23.318;2022-12-18T08:14:05;26.80;;;14.13;;
59008;SDS011;44794;42.652;23.318;2022-12-18T08:16:31;28.27;;;14.48;;
59008;SDS011;44794;42.652;23.318;2022-12-18T08:18:56;30.25;;;14.82;;
59008;SDS011;44794;42.652;23.318;2022-12-18T08:24:14;33.60;;;16.25;;
59008;SDS011;44794;42.652;23.318;2022-12-18T08:26:39;29.98;;;16.48;;
59008;SDS011;44794;42.652;23.318;2022-12-18T08:29:08;35.33;;;17.25;;
59008;SDS011;44794;42.652;23.318;2022-12-18T08:31:37;36.80;;;18.83;;
59008;SDS011;44794;42.652;23.318;2022-12-18T08:34:02;33.22;;;17.40;;
59008;SDS011;44794;42.652;23.318;2022-12-18T08:36:28;30.92;;;16.23;;
59008;SDS011;44794;42.652;23.318;2022-12-18T08:38:53;37.00;;;18.05;;
59008;SDS011;44794;42.652;23.318;2022-12-18T08:41:19;41.42;;;19.02;;
59008;SDS011;44794;42.652;23.318;2022-12-18T08:43:45;33.90;;;17.67;;
59008;SDS011;44794;42.652;23.318;2022-12-18T08:46:34;32.70;;;16.77;;
59008;SDS011;44794;42.652;23.318;2022-12-18T08:49:01;34.42;;;17.75;;
59008;SDS011;44794;42.652;23.318;2022-12-18T08:51:27;35.88;;;19.02;;
59008;SDS011;44794;42.652;23.318;2022-12-18T08:53:53;36.40;;;19.15;;
59008;SDS011;44794;42.652;23.318;2022-12-18T08:56:18;35.22;;;17.20;;
59008;SDS011;44794;42.652;23.318;2022-12-18T08:58:44;36.08;;;17.05;;
59008;SDS011;44794;42.652;23.318;2022-12-18T09:01:10;43.10;;;21.23;;
59008;SDS011;44794;42.652;23.318;2022-12-18T09:03:37;38.60;;;19.30;;
59008;SDS011;44794;42.652;23.318;2022-12-18T09:06:03;40.13;;;20.25;;
59008;SDS011;44794;42.652;23.318;2022-12-18T09:08:29;38.50;;;18.33;;
59008;SDS011;44794;42.652;23.318;2022-12-18T09:10:54;32.05;;;15.60;;
59008;SDS011;44794;42.652;23.318;2022-12-18T09:13:20;40.75;;;18.58;;
59008;SDS011;44794;42.652;23.318;2022-12-18T09:15:50;39.58;;;19.67;;
59008;SDS011;44794;42.652;23.318;2022-12-18T09:18:18;36.70;;;19.00;;
59008;SDS011;44794;42.652;23.318;2022-12-18T09:20:45;36.20;;;17.90;;
59008;SDS011;44794;42.652;23.318;2022-12-18T09:23:11;39.65;;;18.67;;
59008;SDS011;44794;42.652;23.318;2022-12-18T09:25:38;34.95;;;18.50;;
59008;SDS011;44794;42.652;23.318;2022-12-18T09:28:11;34.65;;;16.60;;
59008;SDS011;44794;42.652;23.318;2022-12-18T09:30:39;34.78;;;17.92;;
59008;SDS011;44794;42.652;23.318;2022-12-18T09:33:06;38.17;;;18.35;;
59008;SDS011;44794;42.652;23.318;2022-12-18T09:35:32;38.10;;;19.33;;
59008;SDS011;44794;42.652;23.318;2022-12-18T09:37:57;38.63;;;19.15;;
59008;SDS011;44794;42.652;23.318;2022-12-18T09:40:24;37.72;;;17.77;;
59008;SDS011;44794;42.652;23.318;2022-12-18T09:42:54;31.67;;;17.10;;
59008;SDS011;44794;42.652;23.318;2022-12-18T09:45:23;30.35;;;15.23;;
59008;SDS011;44794;42.652;23.318;2022-12-18T09:47:49;35.78;;;16.77;;
59008;SDS011;44794;42.652;23.318;2022-12-18T09:50:22;35.55;;;16.10;;
59008;SDS011;44794;42.652;23.318;2022-12-18T09:52:53;34.10;;;16.50;;
59008;SDS011;44794;42.652;23.318;2022-12-18T09:55:28;37.35;;;17.33;;
59008;SDS011;44794;42.652;23.318;2022-12-18T09:58:45;31.98;;;15.98;;
59008;SDS011;44794;42.652;23.318;2022-12-18T10:01:01;31.25;;;15.93;;
59008;SDS011;44794;42.652;23.318;2022-12-18T10:03:26;36.15;;;18.77;;
59008;SDS011;44794;42.652;23.318;2022-12-18T10:14:29;29.38;;;15.80;;
59008;SDS011;44794;42.652;23.318;2022-12-18T10:20:01;23.85;;;12.40;;
59008;SDS011;44794;42.652;23.318;2022-12-18T10:28:07;33.35;;;16.42;;
59008;SDS011;44794;42.652;23.318;2022-12-18T10:30:36;27.23;;;12.93;;
59008;SDS011;44794;42.652;23.318;2022-12-18T10:33:04;28.33;;;14.75;;
59008;SDS011;44794;42.652;23.318;2022-12-18T10:35:29;28.48;;;13.95;;
59008;SDS011;44794;42.652;23.318;2022-12-18T10:43:20;34.03;;;16.30;;
59008;SDS011;44794;42.652;23.318;2022-12-18T10:48:49;28.92;;;15.15;;
59008;SDS011;44794;42.652;23.318;2022-12-18T10:51:28;27.85;;;15.02;;
59008;SDS011;44794;42.652;23.318;2022-12-18T10:54:00;28.25;;;14.63;;
59008;SDS011;44794;42.652;23.318;2022-12-18T10:56:28;32.58;;;16.05;;
59008;SDS011;44794;42.652;23.318;2022-12-18T10:59:00;29.85;;;16.17;;
59008;SDS011;44794;42.652;23.318;2022-12-18T11:01:26;31.17;;;15.25;;
59008;SDS011;44794;42.652;23.318;2022-12-18T11:06:18;31.65;;;15.80;;
59008;SDS011;44794;42.652;23.318;2022-12-18T11:08:58;30.92;;;15.38;;
59008;SDS011;44794;42.652;23.318;2022-12-18T11:11:25;24.65;;;11.65;;
59008;SDS011;44794;42.652;23.318;2022-12-18T11:14:05;27.25;;;14.60;;
59008;SDS011;44794;42.652;23.318;2022-12-18T11:16:45;38.33;;;18.85;;
59008;SDS011;44794;42.652;23.318;2022-12-18T11:22:01;25.40;;;12.52;;
59008;SDS011;44794;42.652;23.318;2022-12-18T11:24:32;26.95;;;13.25;;
59008;SDS011;44794;42.652;23.318;2022-12-18T11:27:00;27.48;;;14.15;;
59008;SDS011;44794;42.652;23.318;2022-12-18T11:29:34;26.52;;;13.48;;
59008;SDS011;44794;42.652;23.318;2022-12-18T11:34:51;24.73;;;12.98;;
59008;SDS011;44794;42.652;23.318;2022-12-18T11:37:23;31.48;;;14.25;;
59008;SDS011;44794;42.652;23.318;2022-12-18T11:39:52;31.20;;;17.33;;
59008;SDS011;44794;42.652;23.318;2022-12-18T11:48:06;26.83;;;12.27;;
59008;SDS011;44794;42.652;23.318;2022-12-18T11:50:46;26.88;;;12.18;;
59008;SDS011;44794;42.652;23.318;2022-12-18T11:53:15;24.15;;;11.30;;
59008;SDS011;44794;42.652;23.318;2022-12-18T12:17:08;29.77;;;14.75;;
59008;SDS011;44794;42.652;23.318;2022-12-18T12:22:11;29.85;;;17.00;;
59008;SDS011;44794;42.652;23.318;2022-12-18T12:24:49;31.15;;;17.58;;
59008;SDS011;44794;42.652;23.318;2022-12-18T12:27:30;27.80;;;14.27;;
59008;SDS011;44794;42.652;23.318;2022-12-18T12:33:02;27.85;;;15.18;;
59008;SDS011;44794;42.652;23.318;2022-12-18T12:36:04;31.63;;;15.20;;
59008;SDS011;44794;42.652;23.318;2022-12-18T12:38:49;36.85;;;17.90;;
59008;SDS011;44794;42.652;23.318;2022-12-18T12:41:21;25.15;;;13.15;;
59008;SDS011;44794;42.652;23.318;2022-12-18T12:44:19;32.97;;;17.70;;
59008;SDS011;44794;42.652;23.318;2022-12-18T12:46:59;35.92;;;16.95;;
59008;SDS011;44794;42.652;23.318;2022-12-18T12:49:30;30.40;;;16.42;;
59008;SDS011;44794;42.652;23.318;2022-12-18T12:52:11;29.92;;;15.40;;
59008;SDS011;44794;42.652;23.318;2022-12-18T12:54:58;34.10;;;17.17;;
59008;SDS011;44794;42.652;23.318;2022-12-18T12:57:31;37.33;;;17.77;;
59008;SDS011;44794;42.652;23.318;2022-12-18T13:00:09;33.50;;;16.90;;
59008;SDS011;44794;42.652;23.318;2022-12-18T13:02:42;33.10;;;16.85;;
59008;SDS011;44794;42.652;23.318;2022-12-18T13:08:12;35.65;;;17.75;;
59008;SDS011;44794;42.652;23.318;2022-12-18T13:10:50;26.63;;;13.05;;
59008;SDS011;44794;42.652;23.318;2022-12-18T13:13:50;28.58;;;14.88;;
59008;SDS011;44794;42.652;23.318;2022-12-18T13:16:20;36.65;;;16.95;;
59008;SDS011;44794;42.652;23.318;2022-12-18T13:19:18;32.03;;;16.75;;
59008;SDS011;44794;42.652;23.318;2022-12-18T13:21:51;32.60;;;16.23;;
59008;SDS011;44794;42.652;23.318;2022-12-18T13:24:26;31.27;;;16.08;;
59008;SDS011;44794;42.652;23.318;2022-12-18T13:26:55;32.38;;;16.05;;
59008;SDS011;44794;42.652;23.318;2022-12-18T13:32:21;31.90;;;16.58;;
59008;SDS011;44794;42.652;23.318;2022-12-18T13:34:47;31.65;;;15.90;;
59008;SDS011;44794;42.652;23.318;2022-12-18T13:39:56;29.67;;;15.60;;
59008;SDS011;44794;42.652;23.318;2022-12-18T13:48:25;30.15;;;14.93;;
59008;SDS011;44794;42.652;23.318;2022-12-18T13:50:56;33.47;;;15.57;;
59008;SDS011;44794;42.652;23.318;2022-12-18T13:53:28;35.50;;;16.15;;
59008;SDS011;44794;42.652;23.318;2022-12-18T13:56:16;35.85;;;18.10;;
59008;SDS011;44794;42.652;23.318;2022-12-18T13:59:23;33.70;;;17.45;;
59008;SDS011;44794;42.652;23.318;2022-12-18T14:01:58;31.23;;;17.42;;
59008;SDS011;44794;42.652;23.318;2022-12-18T14:06:56;33.30;;;16.60;;
59008;SDS011;44794;42.652;23.318;2022-12-18T14:09:43;28.70;;;15.07;;
59008;SDS011;44794;42.652;23.318;2022-12-18T14:12:18;36.90;;;17.38;;
59008;SDS011;44794;42.652;23.318;2022-12-18T14:15:05;28.48;;;15.55;;
59008;SDS011;44794;42.652;23.318;2022-12-18T14:17:36;34.28;;;16.00;;
59008;SDS011;44794;42.652;23.318;2022-12-18T14:20:01;28.17;;;14.65;;
59008;SDS011;44794;42.652;23.318;2022-12-18T14:22:27;34.67;;;17.77;;
59008;SDS011;44794;42.652;23.318;2022-12-18T14:38:28;29.60;;;14.00;;
59008;SDS011;44794;42.652;23.318;2022-12-18T14:41:01;26.67;;;13.43;;
59008;SDS011;44794;42.652;23.318;2022-12-18T14:43:31;32.22;;;16.45;;
59008;SDS011;44794;42.652;23.318;2022-12-18T14:45:58;29.95;;;14.57;;
59008;SDS011;44794;42.652;23.318;2022-12-18T14:48:33;26.95;;;13.73;;
59008;SDS011;44794;42.652;23.318;2022-12-18T14:53:42;26.15;;;12.93;;
59008;SDS011;44794;42.652;23.318;2022-12-18T14:58:50;28.20;;;14.18;;
59008;SDS011;44794;42.652;23.318;2022-12-18T15:03:49;29.92;;;14.80;;
59008;SDS011;44794;42.652;23.318;2022-12-18T15:06:26;29.08;;;14.60;;
59008;SDS011;44794;42.652;23.318;2022-12-18T15:09:00;28.25;;;14.07;;
59008;SDS011;44794;42.652;23.318;2022-12-18T15:13:54;27.55;;;14.45;;
59008;SDS011;44794;42.652;23.318;2022-12-18T15:16:22;23.88;;;11.32;;
59008;SDS011;44794;42.652;23.318;2022-12-18T15:18:48;29.55;;;14.13;;
59008;SDS011;44794;42.652;23.318;2022-12-18T15:21:17;33.97;;;15.52;;
59008;SDS011;44794;42.652;23.318;2022-12-18T15:26:10;33.70;;;15.27;;
59008;SDS011;44794;42.652;23.318;2022-12-18T15:28:37;30.02;;;15.18;;
59008;SDS011;44794;42.652;23.318;2022-12-18T15:36:17;27.55;;;13.52;;
59008;SDS011;44794;42.652;23.318;2022-12-18T15:38:47;32.13;;;14.18;;
59008;SDS011;44794;42.652;23.318;2022-12-18T15:41:13;25.77;;;11.90;;
59008;SDS011;44794;42.652;23.318;2022-12-18T15:43:41;23.15;;;12.82;;
59008;SDS011;44794;42.652;23.318;2022-12-18T15:46:23;27.17;;;12.88;;
59008;SDS011;44794;42.652;23.318;2022-12-18T15:48:50;24.13;;;12.43;;
59008;SDS011;44794;42.652;23.318;2022-12-18T15:53:48;33.28;;;17.23;;
59008;SDS011;44794;42.652;23.318;2022-12-18T15:56:16;27.58;;;13.70;;
59008;SDS011;44794;42.652;23.318;2022-12-18T15:59:01;24.80;;;12.57;;
59008;SDS011;44794;42.652;23.318;2022-12-18T16:01:28;25.42;;;12.95;;
59008;SDS011;44794;42.652;23.318;2022-12-18T16:03:55;26.25;;;13.57;;
59008;SDS011;44794;42.652;23.318;2022-12-18T16:06:21;25.88;;;12.95;;
59008;SDS011;44794;42.652;23.318;2022-12-18T16:08:49;27.75;;;13.77;;
59008;SDS011;44794;42.652;23.318;2022-12-18T16:14:03;24.50;;;12.48;;
59008;SDS011;44794;42.652;23.318;2022-12-18T16:16:30;27.08;;;13.68;;
59008;SDS011;44794;42.652;23.318;2022-12-18T16:18:56;25.30;;;12.43;;
59008;SDS011;44794;42.652;23.318;2022-12-18T16:21:21;25.98;;;12.82;;
59008;SDS011;44794;42.652;23.318;2022-12-18T16:23:46;27.55;;;13.73;;
59008;SDS011;44794;42.652;23.318;2022-12-18T16:26:12;28.38;;;14.30;;
59008;SDS011;44794;42.652;23.318;2022-12-18T16:28:37;26.95;;;13.73;;
59008;SDS011;44794;42.652;23.318;2022-12-18T16:31:03;25.85;;;13.50;;
59008;SDS011;44794;42.652;23.318;2022-12-18T16:33:28;30.40;;;14.80;;
59008;SDS011;44794;42.652;23.318;2022-12-18T16:35:53;25.05;;;13.20;;
59008;SDS011;44794;42.652;23.318;2022-12-18T16:38:19;31.27;;;14.32;;
59008;SDS011;44794;42.652;23.318;2022-12-18T16:40:44;28.52;;;13.85;;
59008;SDS011;44794;42.652;23.318;2022-12-18T16:43:28;30.10;;;13.85;;
59008;SDS011;44794;42.652;23.318;2022-12-18T16:45:54;28.52;;;13.68;;
59008;SDS011;44794;42.652;23.318;2022-12-18T16:48:22;31.52;;;14.65;;
59008;SDS011;44794;42.652;23.318;2022-12-18T16:50:47;30.23;;;14.23;;
59008;SDS011;44794;42.652;23.318;2022-12-18T16:53:13;29.25;;;13.65;;
59008;SDS011;44794;42.652;23.318;2022-12-18T16:55:38;29.73;;;14.55;;
59008;SDS011;44794;42.652;23.318;2022-12-18T16:58:03;27.85;;;13.05;;
59008;SDS011;44794;42.652;23.318;2022-12-18T17:00:29;28.42;;;13.85;;